Quick Links (Output Below):   Max & Min Temps   /   Climate Reports   /   Zone Forecasts
River Forecasts   /   Forestry Forecasts   /   Aviation Forecasts   /   Radars   /   Features

Terminal Aerodrome Forecast (Hot Springs)

Pick a Site:
Arkadelphia | El Dorado | Fayetteville | Fort Smith | Harrison | Highfill | Hot Springs | Jonesboro
Little Rock | Monticello | Mountain Home | Pine Bluff | Texarkana
 Forecast 

KHOT 041720Z 0418/0518 28008G16KT P6SM FEW080
     FM042100 33012G20KT P6SM SCT080
     FM050200 33006KT P6SM SKC=


 Latest METARs (Observations) 
How to Decode METARs
17Z KHOT 041653Z AUTO 29008G17KT 250V320 10SM CLR 24/11 A2993 RMK AO2
         SLP130 T02440106
         
16Z KHOT 041553Z AUTO 29009G15KT 10SM CLR 22/09 A2994 RMK AO2 SLP135
         T02220094
         
15Z KHOT 041453Z AUTO 27004KT 10SM CLR 19/11 A2996 RMK AO2 SLP142
         T01940106 58005
         
14Z KHOT 041353Z AUTO 28003KT 10SM CLR 16/09 A2997 RMK AO2 SLP145
         T01560094
         
13Z KHOT 041253Z AUTO 00000KT 10SM CLR 12/09 A2998 RMK AO2 SLP148
         T01220089
         
12Z KHOT 041153Z AUTO 29003KT 10SM CLR 09/08 A2998 RMK AO2 SLP148
         T00940083 10111 20089 55006
         
11Z KHOT 041053Z AUTO 29004KT 10SM CLR 09/08 A2997 RMK AO2 SLP146
         T00940078
         
10Z KHOT 040953Z AUTO 30004KT 10SM CLR 09/08 A2998 RMK AO2 SLP150
         T00940078
         
09Z KHOT 040853Z AUTO 30004KT 10SM CLR 10/08 A2999 RMK AO2 SLP153
         T01000083 57010
         
08Z KHOT 040753Z AUTO 29003KT 10SM CLR 10/09 A3000 RMK AO2 SLP157
         T01000089
         
***** Today's Observations (Above) *****


Back to Main Page
http://www.srh.noaa.gov/lzk/qfcst.php

USA.gov is the U.S. government's official web portal to all federal, state and local government web resources and services.